sensor_id;sensor_type;location;lat;lon;timestamp;P1;durP1;ratioP1;P2;durP2;ratioP2
52898;SDS011;38763;53.096;6.062;2023-05-10T00:02:06;15.05;;;9.73;;
52898;SDS011;38763;53.096;6.062;2023-05-10T00:04:32;13.65;;;10.27;;
52898;SDS011;38763;53.096;6.062;2023-05-10T00:06:57;15.88;;;10.52;;
52898;SDS011;38763;53.096;6.062;2023-05-10T00:09:23;16.50;;;10.82;;
52898;SDS011;38763;53.096;6.062;2023-05-10T00:11:49;17.65;;;11.32;;
52898;SDS011;38763;53.096;6.062;2023-05-10T00:14:14;17.95;;;11.10;;
52898;SDS011;38763;53.096;6.062;2023-05-10T00:16:40;16.88;;;10.73;;
52898;SDS011;38763;53.096;6.062;2023-05-10T00:19:06;14.50;;;9.90;;
52898;SDS011;38763;53.096;6.062;2023-05-10T00:21:31;13.50;;;8.43;;
52898;SDS011;38763;53.096;6.062;2023-05-10T00:23:58;16.63;;;9.43;;
52898;SDS011;38763;53.096;6.062;2023-05-10T00:26:24;12.07;;;8.55;;
52898;SDS011;38763;53.096;6.062;2023-05-10T00:28:50;11.80;;;7.57;;
52898;SDS011;38763;53.096;6.062;2023-05-10T00:31:16;12.68;;;8.00;;
52898;SDS011;38763;53.096;6.062;2023-05-10T00:33:42;12.15;;;7.82;;
52898;SDS011;38763;53.096;6.062;2023-05-10T00:36:07;10.65;;;7.22;;
52898;SDS011;38763;53.096;6.062;2023-05-10T00:38:33;11.20;;;6.90;;
52898;SDS011;38763;53.096;6.062;2023-05-10T00:40:59;11.10;;;7.88;;
52898;SDS011;38763;53.096;6.062;2023-05-10T00:43:25;10.75;;;6.60;;
52898;SDS011;38763;53.096;6.062;2023-05-10T00:45:50;9.93;;;6.63;;
52898;SDS011;38763;53.096;6.062;2023-05-10T00:48:16;9.40;;;7.00;;
52898;SDS011;38763;53.096;6.062;2023-05-10T00:50:42;10.40;;;7.13;;
52898;SDS011;38763;53.096;6.062;2023-05-10T00:53:08;11.52;;;7.95;;
52898;SDS011;38763;53.096;6.062;2023-05-10T00:55:34;11.35;;;7.35;;
52898;SDS011;38763;53.096;6.062;2023-05-10T00:58:00;13.15;;;8.68;;
52898;SDS011;38763;53.096;6.062;2023-05-10T01:00:26;13.07;;;8.05;;
52898;SDS011;38763;53.096;6.062;2023-05-10T01:02:53;14.35;;;8.07;;
52898;SDS011;38763;53.096;6.062;2023-05-10T01:05:19;14.20;;;8.50;;
52898;SDS011;38763;53.096;6.062;2023-05-10T01:07:44;14.50;;;8.80;;
52898;SDS011;38763;53.096;6.062;2023-05-10T01:10:10;18.25;;;9.32;;
52898;SDS011;38763;53.096;6.062;2023-05-10T01:12:37;15.38;;;9.52;;
52898;SDS011;38763;53.096;6.062;2023-05-10T01:15:05;16.02;;;9.45;;
52898;SDS011;38763;53.096;6.062;2023-05-10T01:17:32;18.83;;;9.80;;
52898;SDS011;38763;53.096;6.062;2023-05-10T01:19:59;17.52;;;9.45;;
52898;SDS011;38763;53.096;6.062;2023-05-10T01:33:27;22.65;;;11.55;;
52898;SDS011;38763;53.096;6.062;2023-05-10T01:36:19;25.38;;;12.85;;
52898;SDS011;38763;53.096;6.062;2023-05-10T01:39:11;29.58;;;13.45;;
52898;SDS011;38763;53.096;6.062;2023-05-10T01:47:20;33.22;;;16.08;;
52898;SDS011;38763;53.096;6.062;2023-05-10T01:49:55;33.15;;;15.68;;
52898;SDS011;38763;53.096;6.062;2023-05-10T01:52:25;36.00;;;17.33;;
52898;SDS011;38763;53.096;6.062;2023-05-10T01:54:55;40.60;;;16.55;;
52898;SDS011;38763;53.096;6.062;2023-05-10T01:57:27;35.70;;;17.45;;
52898;SDS011;38763;53.096;6.062;2023-05-10T01:59:57;30.38;;;16.08;;
52898;SDS011;38763;53.096;6.062;2023-05-10T02:02:24;37.28;;;17.73;;
52898;SDS011;38763;53.096;6.062;2023-05-10T02:04:51;33.08;;;16.95;;
52898;SDS011;38763;53.096;6.062;2023-05-10T02:07:19;36.40;;;16.38;;
52898;SDS011;38763;53.096;6.062;2023-05-10T02:09:46;39.60;;;17.50;;
52898;SDS011;38763;53.096;6.062;2023-05-10T02:12:13;35.45;;;16.10;;
52898;SDS011;38763;53.096;6.062;2023-05-10T02:14:40;36.75;;;17.42;;
52898;SDS011;38763;53.096;6.062;2023-05-10T02:17:07;37.88;;;17.00;;
52898;SDS011;38763;53.096;6.062;2023-05-10T02:19:33;38.10;;;17.73;;
52898;SDS011;38763;53.096;6.062;2023-05-10T02:22:01;39.40;;;17.65;;
52898;SDS011;38763;53.096;6.062;2023-05-10T02:24:28;34.53;;;16.88;;
52898;SDS011;38763;53.096;6.062;2023-05-10T02:26:56;34.08;;;15.95;;
52898;SDS011;38763;53.096;6.062;2023-05-10T02:29:24;36.70;;;17.00;;
52898;SDS011;38763;53.096;6.062;2023-05-10T02:31:51;36.50;;;17.25;;
52898;SDS011;38763;53.096;6.062;2023-05-10T02:34:19;35.28;;;16.35;;
52898;SDS011;38763;53.096;6.062;2023-05-10T02:36:47;32.95;;;16.52;;
52898;SDS011;38763;53.096;6.062;2023-05-10T02:39:13;29.55;;;14.82;;
52898;SDS011;38763;53.096;6.062;2023-05-10T02:41:40;28.20;;;14.75;;
52898;SDS011;38763;53.096;6.062;2023-05-10T02:44:07;31.85;;;15.52;;
52898;SDS011;38763;53.096;6.062;2023-05-10T02:46:34;34.25;;;16.30;;
52898;SDS011;38763;53.096;6.062;2023-05-10T02:49:01;32.97;;;16.30;;
52898;SDS011;38763;53.096;6.062;2023-05-10T02:51:28;30.48;;;15.75;;
52898;SDS011;38763;53.096;6.062;2023-05-10T02:53:57;33.33;;;15.77;;
52898;SDS011;38763;53.096;6.062;2023-05-10T02:56:28;31.98;;;14.80;;
52898;SDS011;38763;53.096;6.062;2023-05-10T02:58:59;31.05;;;15.18;;
52898;SDS011;38763;53.096;6.062;2023-05-10T03:01:25;27.67;;;13.68;;
52898;SDS011;38763;53.096;6.062;2023-05-10T03:03:50;26.20;;;14.07;;
52898;SDS011;38763;53.096;6.062;2023-05-10T03:06:16;27.52;;;12.82;;
52898;SDS011;38763;53.096;6.062;2023-05-10T03:08:42;26.15;;;13.00;;
52898;SDS011;38763;53.096;6.062;2023-05-10T03:13:56;27.50;;;13.55;;
52898;SDS011;38763;53.096;6.062;2023-05-10T03:16:45;22.83;;;12.38;;
52898;SDS011;38763;53.096;6.062;2023-05-10T03:19:17;24.90;;;12.35;;
52898;SDS011;38763;53.096;6.062;2023-05-10T03:21:51;24.65;;;12.35;;
52898;SDS011;38763;53.096;6.062;2023-05-10T03:24:20;19.88;;;11.77;;
52898;SDS011;38763;53.096;6.062;2023-05-10T03:26:47;22.63;;;12.52;;
52898;SDS011;38763;53.096;6.062;2023-05-10T03:29:15;24.58;;;13.02;;
52898;SDS011;38763;53.096;6.062;2023-05-10T03:31:42;21.77;;;12.60;;
52898;SDS011;38763;53.096;6.062;2023-05-10T03:34:08;21.05;;;12.80;;
52898;SDS011;38763;53.096;6.062;2023-05-10T03:36:33;21.30;;;12.25;;
52898;SDS011;38763;53.096;6.062;2023-05-10T03:38:59;21.35;;;12.18;;
52898;SDS011;38763;53.096;6.062;2023-05-10T03:41:25;19.45;;;12.93;;
52898;SDS011;38763;53.096;6.062;2023-05-10T03:43:51;20.88;;;13.10;;
52898;SDS011;38763;53.096;6.062;2023-05-10T03:46:17;19.25;;;12.73;;
52898;SDS011;38763;53.096;6.062;2023-05-10T03:48:42;19.20;;;12.35;;
52898;SDS011;38763;53.096;6.062;2023-05-10T03:51:08;17.38;;;12.10;;
52898;SDS011;38763;53.096;6.062;2023-05-10T03:53:34;17.15;;;12.05;;
52898;SDS011;38763;53.096;6.062;2023-05-10T03:55:59;18.77;;;12.40;;
52898;SDS011;38763;53.096;6.062;2023-05-10T03:58:25;18.60;;;12.43;;
52898;SDS011;38763;53.096;6.062;2023-05-10T04:00:51;16.13;;;11.57;;
52898;SDS011;38763;53.096;6.062;2023-05-10T04:03:17;16.55;;;11.23;;
52898;SDS011;38763;53.096;6.062;2023-05-10T04:05:43;16.50;;;11.75;;
52898;SDS011;38763;53.096;6.062;2023-05-10T04:08:08;16.00;;;11.48;;
52898;SDS011;38763;53.096;6.062;2023-05-10T04:10:34;16.77;;;10.65;;
52898;SDS011;38763;53.096;6.062;2023-05-10T04:13:00;15.35;;;10.27;;
52898;SDS011;38763;53.096;6.062;2023-05-10T04:15:26;13.90;;;9.73;;
52898;SDS011;38763;53.096;6.062;2023-05-10T04:17:51;9.02;;;6.30;;
52898;SDS011;38763;53.096;6.062;2023-05-10T04:20:17;8.57;;;6.28;;
52898;SDS011;38763;53.096;6.062;2023-05-10T04:22:43;11.27;;;6.30;;
52898;SDS011;38763;53.096;6.062;2023-05-10T04:25:08;8.30;;;6.03;;
52898;SDS011;38763;53.096;6.062;2023-05-10T04:27:34;6.47;;;4.68;;
52898;SDS011;38763;53.096;6.062;2023-05-10T04:30:00;7.63;;;4.68;;
52898;SDS011;38763;53.096;6.062;2023-05-10T04:32:26;5.25;;;3.20;;
52898;SDS011;38763;53.096;6.062;2023-05-10T04:34:51;2.80;;;1.70;;
52898;SDS011;38763;53.096;6.062;2023-05-10T04:37:18;2.78;;;1.77;;
52898;SDS011;38763;53.096;6.062;2023-05-10T04:39:43;2.97;;;1.60;;
52898;SDS011;38763;53.096;6.062;2023-05-10T04:42:09;2.05;;;1.48;;
52898;SDS011;38763;53.096;6.062;2023-05-10T04:44:35;1.23;;;1.00;;
52898;SDS011;38763;53.096;6.062;2023-05-10T04:47:01;1.23;;;0.90;;
52898;SDS011;38763;53.096;6.062;2023-05-10T04:49:28;1.05;;;0.80;;
52898;SDS011;38763;53.096;6.062;2023-05-10T04:51:54;0.80;;;0.75;;
52898;SDS011;38763;53.096;6.062;2023-05-10T04:54:20;1.20;;;0.80;;
52898;SDS011;38763;53.096;6.062;2023-05-10T04:56:46;1.52;;;0.85;;
52898;SDS011;38763;53.096;6.062;2023-05-10T04:59:11;1.13;;;0.80;;
52898;SDS011;38763;53.096;6.062;2023-05-10T05:01:37;1.30;;;0.90;;
52898;SDS011;38763;53.096;6.062;2023-05-10T05:04:03;1.27;;;1.00;;
52898;SDS011;38763;53.096;6.062;2023-05-10T05:06:29;1.58;;;1.10;;
52898;SDS011;38763;53.096;6.062;2023-05-10T05:08:54;1.83;;;1.08;;
52898;SDS011;38763;53.096;6.062;2023-05-10T05:11:20;3.08;;;1.40;;
52898;SDS011;38763;53.096;6.062;2023-05-10T05:13:46;1.98;;;1.30;;
52898;SDS011;38763;53.096;6.062;2023-05-10T05:16:12;2.45;;;1.40;;
52898;SDS011;38763;53.096;6.062;2023-05-10T05:18:38;1.70;;;1.20;;
52898;SDS011;38763;53.096;6.062;2023-05-10T05:21:12;1.85;;;1.25;;
52898;SDS011;38763;53.096;6.062;2023-05-10T05:23:40;1.50;;;1.10;;
52898;SDS011;38763;53.096;6.062;2023-05-10T05:26:05;1.90;;;1.13;;
52898;SDS011;38763;53.096;6.062;2023-05-10T05:28:31;3.10;;;1.15;;
52898;SDS011;38763;53.096;6.062;2023-05-10T05:30:59;1.58;;;1.10;;
52898;SDS011;38763;53.096;6.062;2023-05-10T05:33:24;2.30;;;1.33;;
52898;SDS011;38763;53.096;6.062;2023-05-10T05:35:50;2.45;;;1.35;;
52898;SDS011;38763;53.096;6.062;2023-05-10T05:38:16;3.00;;;1.80;;
52898;SDS011;38763;53.096;6.062;2023-05-10T05:40:42;2.47;;;1.50;;
52898;SDS011;38763;53.096;6.062;2023-05-10T05:43:08;3.47;;;1.88;;
52898;SDS011;38763;53.096;6.062;2023-05-10T05:45:33;7.43;;;2.05;;
52898;SDS011;38763;53.096;6.062;2023-05-10T05:47:59;2.58;;;1.50;;
52898;SDS011;38763;53.096;6.062;2023-05-10T05:50:25;2.55;;;1.58;;
52898;SDS011;38763;53.096;6.062;2023-05-10T05:52:50;3.47;;;1.60;;
52898;SDS011;38763;53.096;6.062;2023-05-10T05:55:16;3.97;;;1.90;;
52898;SDS011;38763;53.096;6.062;2023-05-10T05:57:42;3.88;;;1.98;;
52898;SDS011;38763;53.096;6.062;2023-05-10T06:00:08;3.20;;;1.80;;
52898;SDS011;38763;53.096;6.062;2023-05-10T06:02:34;2.72;;;1.58;;
52898;SDS011;38763;53.096;6.062;2023-05-10T06:04:59;2.80;;;1.70;;
52898;SDS011;38763;53.096;6.062;2023-05-10T06:07:25;3.25;;;1.70;;
52898;SDS011;38763;53.096;6.062;2023-05-10T06:09:50;2.63;;;1.70;;
52898;SDS011;38763;53.096;6.062;2023-05-10T06:12:16;4.22;;;1.80;;
52898;SDS011;38763;53.096;6.062;2023-05-10T06:14:42;2.70;;;1.80;;
52898;SDS011;38763;53.096;6.062;2023-05-10T06:17:07;3.50;;;2.15;;
52898;SDS011;38763;53.096;6.062;2023-05-10T06:19:33;4.05;;;2.20;;
52898;SDS011;38763;53.096;6.062;2023-05-10T06:21:59;3.53;;;2.10;;
52898;SDS011;38763;53.096;6.062;2023-05-10T06:24:24;5.45;;;2.25;;
52898;SDS011;38763;53.096;6.062;2023-05-10T06:26:50;4.38;;;2.20;;
52898;SDS011;38763;53.096;6.062;2023-05-10T06:29:16;3.72;;;2.00;;
52898;SDS011;38763;53.096;6.062;2023-05-10T06:31:41;3.25;;;1.80;;
52898;SDS011;38763;53.096;6.062;2023-05-10T06:34:07;3.63;;;1.70;;
52898;SDS011;38763;53.096;6.062;2023-05-10T06:36:33;3.70;;;1.70;;
52898;SDS011;38763;53.096;6.062;2023-05-10T06:38:59;3.88;;;2.10;;
52898;SDS011;38763;53.096;6.062;2023-05-10T06:41:24;3.70;;;2.10;;
52898;SDS011;38763;53.096;6.062;2023-05-10T06:43:50;4.22;;;2.28;;
52898;SDS011;38763;53.096;6.062;2023-05-10T06:46:16;3.10;;;1.80;;
52898;SDS011;38763;53.096;6.062;2023-05-10T06:48:41;5.13;;;3.00;;
52898;SDS011;38763;53.096;6.062;2023-05-10T06:51:07;5.20;;;2.90;;
52898;SDS011;38763;53.096;6.062;2023-05-10T06:53:32;5.07;;;3.00;;
52898;SDS011;38763;53.096;6.062;2023-05-10T06:55:58;4.63;;;2.67;;
52898;SDS011;38763;53.096;6.062;2023-05-10T06:58:24;4.93;;;2.50;;
52898;SDS011;38763;53.096;6.062;2023-05-10T07:00:50;5.03;;;2.92;;
52898;SDS011;38763;53.096;6.062;2023-05-10T07:03:15;4.53;;;2.60;;
52898;SDS011;38763;53.096;6.062;2023-05-10T07:05:41;4.43;;;2.65;;
52898;SDS011;38763;53.096;6.062;2023-05-10T07:08:07;6.18;;;3.00;;
52898;SDS011;38763;53.096;6.062;2023-05-10T07:10:33;4.35;;;2.70;;
52898;SDS011;38763;53.096;6.062;2023-05-10T07:12:59;4.82;;;2.72;;
52898;SDS011;38763;53.096;6.062;2023-05-10T07:15:26;4.53;;;2.53;;
52898;SDS011;38763;53.096;6.062;2023-05-10T07:17:51;5.65;;;3.10;;
52898;SDS011;38763;53.096;6.062;2023-05-10T07:20:17;6.10;;;2.90;;
52898;SDS011;38763;53.096;6.062;2023-05-10T07:22:43;5.82;;;2.90;;
52898;SDS011;38763;53.096;6.062;2023-05-10T07:25:09;4.70;;;2.85;;
52898;SDS011;38763;53.096;6.062;2023-05-10T07:27:34;5.30;;;3.00;;
52898;SDS011;38763;53.096;6.062;2023-05-10T07:30:00;7.28;;;3.90;;
52898;SDS011;38763;53.096;6.062;2023-05-10T07:32:26;6.82;;;3.78;;
52898;SDS011;38763;53.096;6.062;2023-05-10T07:34:52;8.05;;;4.00;;
52898;SDS011;38763;53.096;6.062;2023-05-10T07:37:17;7.88;;;4.03;;
52898;SDS011;38763;53.096;6.062;2023-05-10T07:39:43;7.13;;;4.05;;
52898;SDS011;38763;53.096;6.062;2023-05-10T07:42:09;6.63;;;3.97;;
52898;SDS011;38763;53.096;6.062;2023-05-10T07:44:34;7.55;;;4.38;;
52898;SDS011;38763;53.096;6.062;2023-05-10T07:47:00;7.63;;;4.38;;
52898;SDS011;38763;53.096;6.062;2023-05-10T07:49:25;9.60;;;4.40;;
52898;SDS011;38763;53.096;6.062;2023-05-10T07:51:51;9.23;;;4.80;;
52898;SDS011;38763;53.096;6.062;2023-05-10T07:54:17;10.23;;;5.15;;
52898;SDS011;38763;53.096;6.062;2023-05-10T07:56:42;10.90;;;5.30;;
52898;SDS011;38763;53.096;6.062;2023-05-10T07:59:15;8.27;;;4.55;;
52898;SDS011;38763;53.096;6.062;2023-05-10T08:01:42;8.70;;;4.65;;
52898;SDS011;38763;53.096;6.062;2023-05-10T08:04:08;8.65;;;4.32;;
52898;SDS011;38763;53.096;6.062;2023-05-10T08:06:34;8.25;;;4.45;;
52898;SDS011;38763;53.096;6.062;2023-05-10T08:08:59;10.73;;;5.10;;
52898;SDS011;38763;53.096;6.062;2023-05-10T08:11:25;9.05;;;4.40;;
52898;SDS011;38763;53.096;6.062;2023-05-10T08:13:53;8.20;;;4.60;;
52898;SDS011;38763;53.096;6.062;2023-05-10T08:16:19;8.38;;;4.30;;
52898;SDS011;38763;53.096;6.062;2023-05-10T08:18:45;9.77;;;4.28;;
52898;SDS011;38763;53.096;6.062;2023-05-10T08:21:12;9.15;;;4.55;;
52898;SDS011;38763;53.096;6.062;2023-05-10T08:23:38;9.05;;;4.68;;
52898;SDS011;38763;53.096;6.062;2023-05-10T08:26:04;10.10;;;4.80;;
52898;SDS011;38763;53.096;6.062;2023-05-10T08:28:30;8.75;;;4.28;;
52898;SDS011;38763;53.096;6.062;2023-05-10T08:30:56;10.07;;;5.03;;
52898;SDS011;38763;53.096;6.062;2023-05-10T08:33:22;6.53;;;3.83;;
52898;SDS011;38763;53.096;6.062;2023-05-10T08:35:47;8.63;;;4.50;;
52898;SDS011;38763;53.096;6.062;2023-05-10T08:38:13;7.43;;;4.03;;
52898;SDS011;38763;53.096;6.062;2023-05-10T08:40:42;8.68;;;3.92;;
52898;SDS011;38763;53.096;6.062;2023-05-10T08:43:10;7.70;;;3.90;;
52898;SDS011;38763;53.096;6.062;2023-05-10T08:45:37;9.27;;;3.83;;
52898;SDS011;38763;53.096;6.062;2023-05-10T08:48:08;9.57;;;3.85;;
52898;SDS011;38763;53.096;6.062;2023-05-10T08:50:40;7.25;;;3.58;;
52898;SDS011;38763;53.096;6.062;2023-05-10T08:55:37;12.02;;;4.20;;
52898;SDS011;38763;53.096;6.062;2023-05-10T08:58:06;8.30;;;4.10;;
52898;SDS011;38763;53.096;6.062;2023-05-10T09:00:33;7.55;;;3.75;;
52898;SDS011;38763;53.096;6.062;2023-05-10T09:02:59;9.32;;;4.35;;
52898;SDS011;38763;53.096;6.062;2023-05-10T09:05:25;8.65;;;4.22;;
52898;SDS011;38763;53.096;6.062;2023-05-10T09:07:52;8.80;;;4.38;;
52898;SDS011;38763;53.096;6.062;2023-05-10T09:10:18;8.77;;;4.63;;
52898;SDS011;38763;53.096;6.062;2023-05-10T09:12:44;7.63;;;4.18;;
52898;SDS011;38763;53.096;6.062;2023-05-10T09:15:11;8.25;;;4.80;;
52898;SDS011;38763;53.096;6.062;2023-05-10T09:17:40;10.27;;;4.75;;
52898;SDS011;38763;53.096;6.062;2023-05-10T09:20:07;8.93;;;4.70;;
52898;SDS011;38763;53.096;6.062;2023-05-10T09:22:33;8.70;;;4.57;;
52898;SDS011;38763;53.096;6.062;2023-05-10T09:27:32;8.55;;;4.75;;
52898;SDS011;38763;53.096;6.062;2023-05-10T09:29:58;8.95;;;4.70;;
52898;SDS011;38763;53.096;6.062;2023-05-10T09:37:34;8.50;;;4.75;;
52898;SDS011;38763;53.096;6.062;2023-05-10T09:40:00;7.25;;;4.32;;
52898;SDS011;38763;53.096;6.062;2023-05-10T09:42:26;9.23;;;4.68;;
52898;SDS011;38763;53.096;6.062;2023-05-10T09:44:51;8.32;;;4.38;;
52898;SDS011;38763;53.096;6.062;2023-05-10T09:47:17;9.30;;;4.82;;
52898;SDS011;38763;53.096;6.062;2023-05-10T09:49:49;10.27;;;4.63;;
52898;SDS011;38763;53.096;6.062;2023-05-10T09:52:16;9.70;;;5.13;;
52898;SDS011;38763;53.096;6.062;2023-05-10T09:54:45;10.00;;;5.05;;
52898;SDS011;38763;53.096;6.062;2023-05-10T09:57:21;9.43;;;5.25;;
52898;SDS011;38763;53.096;6.062;2023-05-10T09:59:47;10.25;;;4.93;;
52898;SDS011;38763;53.096;6.062;2023-05-10T10:02:14;9.65;;;5.15;;
52898;SDS011;38763;53.096;6.062;2023-05-10T10:04:40;9.18;;;5.35;;
52898;SDS011;38763;53.096;6.062;2023-05-10T10:07:06;9.77;;;5.07;;
52898;SDS011;38763;53.096;6.062;2023-05-10T10:09:33;9.65;;;5.45;;
52898;SDS011;38763;53.096;6.062;2023-05-10T10:12:00;9.73;;;5.13;;
52898;SDS011;38763;53.096;6.062;2023-05-10T10:14:27;10.00;;;5.78;;
52898;SDS011;38763;53.096;6.062;2023-05-10T10:16:53;10.52;;;5.68;;
52898;SDS011;38763;53.096;6.062;2023-05-10T10:19:19;9.48;;;5.45;;
52898;SDS011;38763;53.096;6.062;2023-05-10T10:21:46;10.10;;;5.60;;
52898;SDS011;38763;53.096;6.062;2023-05-10T10:24:12;12.10;;;6.30;;
52898;SDS011;38763;53.096;6.062;2023-05-10T10:26:38;12.88;;;6.00;;
52898;SDS011;38763;53.096;6.062;2023-05-10T10:31:41;11.48;;;6.03;;
52898;SDS011;38763;53.096;6.062;2023-05-10T10:34:28;12.38;;;7.15;;
52898;SDS011;38763;53.096;6.062;2023-05-10T10:36:56;13.05;;;6.88;;
52898;SDS011;38763;53.096;6.062;2023-05-10T10:39:22;11.63;;;6.85;;
52898;SDS011;38763;53.096;6.062;2023-05-10T10:41:51;12.23;;;6.38;;
52898;SDS011;38763;53.096;6.062;2023-05-10T10:49:31;11.83;;;6.37;;
52898;SDS011;38763;53.096;6.062;2023-05-10T10:52:21;12.52;;;6.57;;
52898;SDS011;38763;53.096;6.062;2023-05-10T11:02:51;9.65;;;5.28;;
52898;SDS011;38763;53.096;6.062;2023-05-10T11:07:58;10.93;;;6.32;;
52898;SDS011;38763;53.096;6.062;2023-05-10T11:10:25;11.32;;;6.20;;
52898;SDS011;38763;53.096;6.062;2023-05-10T11:13:04;10.50;;;5.95;;
52898;SDS011;38763;53.096;6.062;2023-05-10T11:15:31;10.13;;;5.88;;
52898;SDS011;38763;53.096;6.062;2023-05-10T11:17:58;12.88;;;6.70;;
52898;SDS011;38763;53.096;6.062;2023-05-10T11:20:28;12.38;;;6.63;;
52898;SDS011;38763;53.096;6.062;2023-05-10T11:23:00;11.38;;;6.40;;
52898;SDS011;38763;53.096;6.062;2023-05-10T11:25:44;9.85;;;6.10;;
52898;SDS011;38763;53.096;6.062;2023-05-10T11:28:13;11.55;;;6.13;;
52898;SDS011;38763;53.096;6.062;2023-05-10T11:30:42;11.63;;;6.30;;
52898;SDS011;38763;53.096;6.062;2023-05-10T11:33:09;13.90;;;6.07;;
52898;SDS011;38763;53.096;6.062;2023-05-10T11:35:40;11.57;;;6.88;;
52898;SDS011;38763;53.096;6.062;2023-05-10T11:38:06;12.93;;;6.20;;
52898;SDS011;38763;53.096;6.062;2023-05-10T11:40:33;10.55;;;5.90;;
52898;SDS011;38763;53.096;6.062;2023-05-10T11:42:59;10.65;;;6.10;;
52898;SDS011;38763;53.096;6.062;2023-05-10T11:45:25;11.57;;;6.20;;
52898;SDS011;38763;53.096;6.062;2023-05-10T11:47:53;12.38;;;6.15;;
52898;SDS011;38763;53.096;6.062;2023-05-10T11:50:18;11.02;;;6.55;;
52898;SDS011;38763;53.096;6.062;2023-05-10T11:52:44;11.55;;;6.75;;
52898;SDS011;38763;53.096;6.062;2023-05-10T11:55:10;12.88;;;6.75;;
52898;SDS011;38763;53.096;6.062;2023-05-10T11:57:37;11.23;;;6.97;;
52898;SDS011;38763;53.096;6.062;2023-05-10T12:00:03;13.13;;;6.88;;
52898;SDS011;38763;53.096;6.062;2023-05-10T12:02:30;13.25;;;7.25;;
52898;SDS011;38763;53.096;6.062;2023-05-10T12:04:56;12.15;;;7.20;;
52898;SDS011;38763;53.096;6.062;2023-05-10T12:07:22;9.75;;;6.07;;
52898;SDS011;38763;53.096;6.062;2023-05-10T12:12:42;10.93;;;6.50;;
52898;SDS011;38763;53.096;6.062;2023-05-10T12:15:21;11.68;;;6.95;;
52898;SDS011;38763;53.096;6.062;2023-05-10T12:17:48;10.70;;;6.50;;
52898;SDS011;38763;53.096;6.062;2023-05-10T12:22:48;9.10;;;5.60;;
52898;SDS011;38763;53.096;6.062;2023-05-10T12:25:16;9.57;;;5.95;;
52898;SDS011;38763;53.096;6.062;2023-05-10T12:27:53;11.95;;;6.18;;
52898;SDS011;38763;53.096;6.062;2023-05-10T12:30:21;10.98;;;6.43;;
52898;SDS011;38763;53.096;6.062;2023-05-10T12:32:51;9.45;;;5.57;;
52898;SDS011;38763;53.096;6.062;2023-05-10T12:35:17;11.93;;;6.10;;
52898;SDS011;38763;53.096;6.062;2023-05-10T12:37:46;11.85;;;5.55;;
52898;SDS011;38763;53.096;6.062;2023-05-10T12:40:13;10.55;;;5.22;;
52898;SDS011;38763;53.096;6.062;2023-05-10T12:42:39;9.88;;;5.43;;
52898;SDS011;38763;53.096;6.062;2023-05-10T12:45:06;10.02;;;5.32;;
52898;SDS011;38763;53.096;6.062;2023-05-10T12:47:33;8.95;;;5.15;;
52898;SDS011;38763;53.096;6.062;2023-05-10T12:49:59;10.38;;;4.90;;
52898;SDS011;38763;53.096;6.062;2023-05-10T12:52:26;8.45;;;4.82;;
52898;SDS011;38763;53.096;6.062;2023-05-10T12:54:52;10.85;;;5.05;;
52898;SDS011;38763;53.096;6.062;2023-05-10T12:57:19;8.25;;;4.80;;
52898;SDS011;38763;53.096;6.062;2023-05-10T12:59:45;8.68;;;5.25;;
52898;SDS011;38763;53.096;6.062;2023-05-10T13:02:11;10.68;;;4.60;;
52898;SDS011;38763;53.096;6.062;2023-05-10T13:04:37;6.80;;;4.18;;
52898;SDS011;38763;53.096;6.062;2023-05-10T13:07:07;7.05;;;4.80;;
52898;SDS011;38763;53.096;6.062;2023-05-10T13:09:33;8.60;;;4.82;;
52898;SDS011;38763;53.096;6.062;2023-05-10T13:11:59;8.52;;;4.13;;
52898;SDS011;38763;53.096;6.062;2023-05-10T13:14:24;7.10;;;4.63;;
52898;SDS011;38763;53.096;6.062;2023-05-10T13:16:50;7.28;;;4.40;;
52898;SDS011;38763;53.096;6.062;2023-05-10T13:19:16;8.20;;;4.85;;
52898;SDS011;38763;53.096;6.062;2023-05-10T13:21:42;7.95;;;4.30;;
52898;SDS011;38763;53.096;6.062;2023-05-10T13:24:09;7.10;;;3.78;;
52898;SDS011;38763;53.096;6.062;2023-05-10T13:26:35;7.32;;;3.72;;
52898;SDS011;38763;53.096;6.062;2023-05-10T13:29:01;7.68;;;4.35;;
52898;SDS011;38763;53.096;6.062;2023-05-10T13:31:28;7.95;;;4.30;;
52898;SDS011;38763;53.096;6.062;2023-05-10T13:33:53;8.57;;;4.25;;
52898;SDS011;38763;53.096;6.062;2023-05-10T13:36:19;7.60;;;4.43;;
52898;SDS011;38763;53.096;6.062;2023-05-10T13:38:45;9.10;;;4.25;;
52898;SDS011;38763;53.096;6.062;2023-05-10T13:41:10;10.73;;;5.43;;
52898;SDS011;38763;53.096;6.062;2023-05-10T13:43:36;11.25;;;6.30;;
52898;SDS011;38763;53.096;6.062;2023-05-10T13:46:01;11.43;;;6.32;;
52898;SDS011;38763;53.096;6.062;2023-05-10T13:48:27;12.57;;;6.35;;
52898;SDS011;38763;53.096;6.062;2023-05-10T13:50:53;10.20;;;6.18;;
52898;SDS011;38763;53.096;6.062;2023-05-10T13:53:19;11.70;;;6.07;;
52898;SDS011;38763;53.096;6.062;2023-05-10T13:55:45;12.63;;;6.00;;
52898;SDS011;38763;53.096;6.062;2023-05-10T13:58:12;9.57;;;6.10;;
52898;SDS011;38763;53.096;6.062;2023-05-10T14:00:37;11.68;;;5.53;;
52898;SDS011;38763;53.096;6.062;2023-05-10T14:03:03;10.05;;;5.10;;
52898;SDS011;38763;53.096;6.062;2023-05-10T14:05:30;8.25;;;4.85;;
52898;SDS011;38763;53.096;6.062;2023-05-10T14:07:55;11.27;;;5.20;;
52898;SDS011;38763;53.096;6.062;2023-05-10T14:10:22;9.57;;;5.60;;
52898;SDS011;38763;53.096;6.062;2023-05-10T14:12:47;9.10;;;4.80;;
52898;SDS011;38763;53.096;6.062;2023-05-10T14:15:13;10.27;;;4.75;;
52898;SDS011;38763;53.096;6.062;2023-05-10T14:17:39;9.25;;;4.72;;
52898;SDS011;38763;53.096;6.062;2023-05-10T14:20:04;10.05;;;4.60;;
52898;SDS011;38763;53.096;6.062;2023-05-10T14:22:30;7.10;;;4.32;;
52898;SDS011;38763;53.096;6.062;2023-05-10T14:24:56;6.18;;;3.47;;
52898;SDS011;38763;53.096;6.062;2023-05-10T14:27:22;6.53;;;3.20;;
52898;SDS011;38763;53.096;6.062;2023-05-10T14:29:48;5.53;;;2.92;;
52898;SDS011;38763;53.096;6.062;2023-05-10T14:32:13;6.07;;;3.50;;
52898;SDS011;38763;53.096;6.062;2023-05-10T14:34:39;5.63;;;3.30;;
52898;SDS011;38763;53.096;6.062;2023-05-10T14:37:04;9.57;;;4.57;;
52898;SDS011;38763;53.096;6.062;2023-05-10T14:39:30;9.10;;;5.20;;
52898;SDS011;38763;53.096;6.062;2023-05-10T14:41:56;10.20;;;6.10;;
52898;SDS011;38763;53.096;6.062;2023-05-10T14:44:22;10.32;;;6.15;;
52898;SDS011;38763;53.096;6.062;2023-05-10T14:46:48;9.30;;;5.97;;
52898;SDS011;38763;53.096;6.062;2023-05-10T14:49:14;9.15;;;5.90;;
52898;SDS011;38763;53.096;6.062;2023-05-10T14:51:40;10.10;;;6.20;;
52898;SDS011;38763;53.096;6.062;2023-05-10T14:54:06;9.35;;;5.38;;
52898;SDS011;38763;53.096;6.062;2023-05-10T14:56:32;8.48;;;4.97;;
52898;SDS011;38763;53.096;6.062;2023-05-10T14:58:57;7.78;;;4.93;;
52898;SDS011;38763;53.096;6.062;2023-05-10T15:01:24;8.93;;;4.80;;
52898;SDS011;38763;53.096;6.062;2023-05-10T15:03:50;6.82;;;4.10;;
52898;SDS011;38763;53.096;6.062;2023-05-10T15:06:15;8.90;;;4.68;;
52898;SDS011;38763;53.096;6.062;2023-05-10T15:08:42;9.00;;;5.18;;
52898;SDS011;38763;53.096;6.062;2023-05-10T15:11:08;10.20;;;6.13;;
52898;SDS011;38763;53.096;6.062;2023-05-10T15:13:33;8.57;;;5.20;;
52898;SDS011;38763;53.096;6.062;2023-05-10T15:15:59;8.20;;;5.13;;
52898;SDS011;38763;53.096;6.062;2023-05-10T15:18:25;7.47;;;4.15;;
52898;SDS011;38763;53.096;6.062;2023-05-10T15:20:50;8.10;;;5.15;;
52898;SDS011;38763;53.096;6.062;2023-05-10T15:23:16;7.32;;;4.80;;
52898;SDS011;38763;53.096;6.062;2023-05-10T15:25:42;8.02;;;4.95;;
52898;SDS011;38763;53.096;6.062;2023-05-10T15:28:07;7.05;;;4.40;;
52898;SDS011;38763;53.096;6.062;2023-05-10T15:30:33;7.93;;;4.90;;